Washington, District of Columbia
Traffic Map
Current Weather Conditions
Washington, District of Columbia
Overcast
Overcast
76°
Feels Like: 76°
Wind Chill: 76° Ceiling: 4400
Heat Index: 76° Visibility: 10mi
Dew Point: 66° Wind: 8mph
Humidity: 71% Direction: 350° (N)
Pressure: 30.01in Gusts: 0mph
Raw Report DataKDCA 221152Z 35007KT 10SM OVC044 24/19 A3001 RMK AO2 SLP163 BINOVC 70001 T02440189 10256 20233 53017
Traffic Incident Summary
Active as of:
Severity:
Category:
InformationThere was an issue retrieving the traffic information for this location. Please try a different location or try again shortly.
Advertisements
Track Severe Weather on mobile